sensor_id;sensor_type;location;lat;lon;timestamp;P1;durP1;ratioP1;P2;durP2;ratioP2
27921;SDS011;15261;50.356;10.340;2023-05-10T00:01:01;4.95;;;4.15;;
27921;SDS011;15261;50.356;10.340;2023-05-10T00:03:27;5.38;;;4.35;;
27921;SDS011;15261;50.356;10.340;2023-05-10T00:05:53;4.55;;;4.22;;
27921;SDS011;15261;50.356;10.340;2023-05-10T00:08:18;5.20;;;4.80;;
27921;SDS011;15261;50.356;10.340;2023-05-10T00:10:44;5.82;;;4.55;;
27921;SDS011;15261;50.356;10.340;2023-05-10T00:13:10;5.18;;;4.78;;
27921;SDS011;15261;50.356;10.340;2023-05-10T00:15:35;5.75;;;4.78;;
27921;SDS011;15261;50.356;10.340;2023-05-10T00:18:01;5.40;;;4.90;;
27921;SDS011;15261;50.356;10.340;2023-05-10T00:20:27;5.35;;;4.88;;
27921;SDS011;15261;50.356;10.340;2023-05-10T00:22:52;5.97;;;4.85;;
27921;SDS011;15261;50.356;10.340;2023-05-10T00:25:18;5.15;;;4.75;;
27921;SDS011;15261;50.356;10.340;2023-05-10T00:27:46;6.43;;;4.90;;
27921;SDS011;15261;50.356;10.340;2023-05-10T00:30:12;5.40;;;5.00;;
27921;SDS011;15261;50.356;10.340;2023-05-10T00:32:38;6.15;;;4.68;;
27921;SDS011;15261;50.356;10.340;2023-05-10T00:35:03;5.10;;;4.70;;
27921;SDS011;15261;50.356;10.340;2023-05-10T00:37:29;5.43;;;4.70;;
27921;SDS011;15261;50.356;10.340;2023-05-10T00:39:55;5.47;;;4.80;;
27921;SDS011;15261;50.356;10.340;2023-05-10T00:42:21;5.32;;;4.68;;
27921;SDS011;15261;50.356;10.340;2023-05-10T00:44:47;5.80;;;4.97;;
27921;SDS011;15261;50.356;10.340;2023-05-10T00:47:14;5.90;;;4.70;;
27921;SDS011;15261;50.356;10.340;2023-05-10T00:49:40;8.82;;;5.05;;
27921;SDS011;15261;50.356;10.340;2023-05-10T00:52:07;7.22;;;4.85;;
27921;SDS011;15261;50.356;10.340;2023-05-10T00:54:33;9.55;;;5.20;;
27921;SDS011;15261;50.356;10.340;2023-05-10T00:56:59;6.15;;;5.60;;
27921;SDS011;15261;50.356;10.340;2023-05-10T00:59:24;9.32;;;6.00;;
27921;SDS011;15261;50.356;10.340;2023-05-10T01:17:42;6.43;;;4.95;;
27921;SDS011;15261;50.356;10.340;2023-05-10T01:20:20;6.05;;;5.60;;
27921;SDS011;15261;50.356;10.340;2023-05-10T01:23:05;6.05;;;5.30;;
27921;SDS011;15261;50.356;10.340;2023-05-10T01:32:02;10.90;;;6.07;;
27921;SDS011;15261;50.356;10.340;2023-05-10T01:34:25;6.20;;;5.60;;
27921;SDS011;15261;50.356;10.340;2023-05-10T01:37:03;7.35;;;6.47;;
27921;SDS011;15261;50.356;10.340;2023-05-10T01:40:08;6.25;;;5.65;;
27921;SDS011;15261;50.356;10.340;2023-05-10T01:42:57;7.20;;;6.03;;
27921;SDS011;15261;50.356;10.340;2023-05-10T01:45:29;6.35;;;5.70;;
27921;SDS011;15261;50.356;10.340;2023-05-10T01:48:06;6.80;;;6.18;;
27921;SDS011;15261;50.356;10.340;2023-05-10T01:50:34;7.25;;;6.57;;
27921;SDS011;15261;50.356;10.340;2023-05-10T01:53:02;6.45;;;5.85;;
27921;SDS011;15261;50.356;10.340;2023-05-10T01:55:33;8.70;;;6.40;;
27921;SDS011;15261;50.356;10.340;2023-05-10T01:58:09;7.47;;;6.72;;
27921;SDS011;15261;50.356;10.340;2023-05-10T02:00:39;8.18;;;6.25;;
27921;SDS011;15261;50.356;10.340;2023-05-10T02:03:08;6.60;;;6.00;;
27921;SDS011;15261;50.356;10.340;2023-05-10T02:05:38;7.25;;;6.55;;
27921;SDS011;15261;50.356;10.340;2023-05-10T02:08:06;7.88;;;6.75;;
27921;SDS011;15261;50.356;10.340;2023-05-10T02:10:36;8.00;;;6.50;;
27921;SDS011;15261;50.356;10.340;2023-05-10T02:13:02;8.02;;;7.20;;
27921;SDS011;15261;50.356;10.340;2023-05-10T02:15:29;10.60;;;7.30;;
27921;SDS011;15261;50.356;10.340;2023-05-10T02:17:58;8.48;;;6.88;;
27921;SDS011;15261;50.356;10.340;2023-05-10T02:20:27;7.35;;;6.68;;
27921;SDS011;15261;50.356;10.340;2023-05-10T02:22:54;8.07;;;6.95;;
27921;SDS011;15261;50.356;10.340;2023-05-10T02:25:22;7.97;;;6.93;;
27921;SDS011;15261;50.356;10.340;2023-05-10T02:27:49;7.32;;;6.72;;
27921;SDS011;15261;50.356;10.340;2023-05-10T02:30:19;7.30;;;6.70;;
27921;SDS011;15261;50.356;10.340;2023-05-10T02:32:49;7.72;;;6.88;;
27921;SDS011;15261;50.356;10.340;2023-05-10T02:35:16;7.03;;;6.40;;
27921;SDS011;15261;50.356;10.340;2023-05-10T02:37:43;7.13;;;6.53;;
27921;SDS011;15261;50.356;10.340;2023-05-10T02:40:11;7.25;;;6.65;;
27921;SDS011;15261;50.356;10.340;2023-05-10T02:42:38;6.53;;;5.85;;
27921;SDS011;15261;50.356;10.340;2023-05-10T02:45:08;6.70;;;6.10;;
27921;SDS011;15261;50.356;10.340;2023-05-10T02:47:37;7.13;;;6.45;;
27921;SDS011;15261;50.356;10.340;2023-05-10T02:50:03;6.72;;;6.13;;
27921;SDS011;15261;50.356;10.340;2023-05-10T02:52:29;7.22;;;6.53;;
27921;SDS011;15261;50.356;10.340;2023-05-10T02:55:02;6.97;;;6.38;;
27921;SDS011;15261;50.356;10.340;2023-05-10T02:57:31;6.90;;;6.15;;
27921;SDS011;15261;50.356;10.340;2023-05-10T02:59:59;7.15;;;6.55;;
27921;SDS011;15261;50.356;10.340;2023-05-10T03:02:26;7.68;;;6.47;;
27921;SDS011;15261;50.356;10.340;2023-05-10T03:04:53;9.13;;;6.72;;
27921;SDS011;15261;50.356;10.340;2023-05-10T03:07:18;6.00;;;5.60;;
27921;SDS011;15261;50.356;10.340;2023-05-10T03:09:46;5.93;;;5.43;;
27921;SDS011;15261;50.356;10.340;2023-05-10T03:20:38;4.40;;;4.10;;
27921;SDS011;15261;50.356;10.340;2023-05-10T03:25:42;5.03;;;4.63;;
27921;SDS011;15261;50.356;10.340;2023-05-10T03:28:29;4.60;;;4.30;;
27921;SDS011;15261;50.356;10.340;2023-05-10T03:30:56;4.10;;;3.80;;
27921;SDS011;15261;50.356;10.340;2023-05-10T03:33:23;3.92;;;3.60;;
27921;SDS011;15261;50.356;10.340;2023-05-10T03:35:48;4.85;;;3.10;;
27921;SDS011;15261;50.356;10.340;2023-05-10T03:38:14;2.97;;;2.78;;
27921;SDS011;15261;50.356;10.340;2023-05-10T03:40:40;2.78;;;2.58;;
27921;SDS011;15261;50.356;10.340;2023-05-10T03:43:05;1.80;;;1.70;;
27921;SDS011;15261;50.356;10.340;2023-05-10T03:45:34;2.03;;;1.40;;
27921;SDS011;15261;50.356;10.340;2023-05-10T03:48:00;1.40;;;1.30;;
27921;SDS011;15261;50.356;10.340;2023-05-10T03:50:26;2.25;;;1.20;;
27921;SDS011;15261;50.356;10.340;2023-05-10T03:52:51;1.00;;;1.00;;
27921;SDS011;15261;50.356;10.340;2023-05-10T03:55:17;0.82;;;0.82;;
27921;SDS011;15261;50.356;10.340;2023-05-10T03:57:47;0.90;;;0.90;;
27921;SDS011;15261;50.356;10.340;2023-05-10T04:00:14;2.47;;;0.70;;
27921;SDS011;15261;50.356;10.340;2023-05-10T04:02:40;0.70;;;0.70;;
27921;SDS011;15261;50.356;10.340;2023-05-10T04:05:06;0.80;;;0.80;;
27921;SDS011;15261;50.356;10.340;2023-05-10T04:07:32;0.70;;;0.70;;
27921;SDS011;15261;50.356;10.340;2023-05-10T04:09:57;0.65;;;0.65;;
27921;SDS011;15261;50.356;10.340;2023-05-10T04:12:23;1.38;;;0.68;;
27921;SDS011;15261;50.356;10.340;2023-05-10T04:14:49;1.70;;;0.77;;
27921;SDS011;15261;50.356;10.340;2023-05-10T04:17:16;0.95;;;0.73;;
27921;SDS011;15261;50.356;10.340;2023-05-10T04:19:41;0.75;;;0.75;;
27921;SDS011;15261;50.356;10.340;2023-05-10T04:22:07;1.13;;;0.70;;
27921;SDS011;15261;50.356;10.340;2023-05-10T04:24:33;1.17;;;0.93;;
27921;SDS011;15261;50.356;10.340;2023-05-10T04:26:58;5.70;;;0.85;;
27921;SDS011;15261;50.356;10.340;2023-05-10T04:29:24;1.05;;;0.70;;
27921;SDS011;15261;50.356;10.340;2023-05-10T04:31:50;0.98;;;0.80;;
27921;SDS011;15261;50.356;10.340;2023-05-10T04:34:20;0.57;;;0.57;;
27921;SDS011;15261;50.356;10.340;2023-05-10T04:36:46;0.75;;;0.68;;
27921;SDS011;15261;50.356;10.340;2023-05-10T04:39:11;0.63;;;0.60;;
27921;SDS011;15261;50.356;10.340;2023-05-10T04:41:38;0.63;;;0.60;;
27921;SDS011;15261;50.356;10.340;2023-05-10T04:44:04;0.57;;;0.57;;
27921;SDS011;15261;50.356;10.340;2023-05-10T04:46:29;3.78;;;0.82;;
27921;SDS011;15261;50.356;10.340;2023-05-10T04:48:55;0.60;;;0.60;;
27921;SDS011;15261;50.356;10.340;2023-05-10T04:51:21;0.82;;;0.60;;
27921;SDS011;15261;50.356;10.340;2023-05-10T04:53:49;0.73;;;0.73;;
27921;SDS011;15261;50.356;10.340;2023-05-10T04:56:15;0.98;;;0.50;;
27921;SDS011;15261;50.356;10.340;2023-05-10T04:58:41;1.00;;;0.70;;
27921;SDS011;15261;50.356;10.340;2023-05-10T05:01:07;0.95;;;0.70;;
27921;SDS011;15261;50.356;10.340;2023-05-10T05:03:33;0.60;;;0.60;;
27921;SDS011;15261;50.356;10.340;2023-05-10T05:05:59;1.10;;;0.52;;
27921;SDS011;15261;50.356;10.340;2023-05-10T05:08:28;0.52;;;0.47;;
27921;SDS011;15261;50.356;10.340;2023-05-10T05:10:54;0.55;;;0.50;;
27921;SDS011;15261;50.356;10.340;2023-05-10T05:13:22;0.40;;;0.40;;
27921;SDS011;15261;50.356;10.340;2023-05-10T05:15:47;3.05;;;0.70;;
27921;SDS011;15261;50.356;10.340;2023-05-10T05:18:13;0.70;;;0.43;;
27921;SDS011;15261;50.356;10.340;2023-05-10T05:20:39;0.43;;;0.28;;
27921;SDS011;15261;50.356;10.340;2023-05-10T05:23:07;0.43;;;0.43;;
27921;SDS011;15261;50.356;10.340;2023-05-10T05:25:33;0.47;;;0.47;;
27921;SDS011;15261;50.356;10.340;2023-05-10T05:27:59;2.05;;;0.60;;
27921;SDS011;15261;50.356;10.340;2023-05-10T05:30:24;1.05;;;0.70;;
27921;SDS011;15261;50.356;10.340;2023-05-10T05:32:50;1.08;;;0.55;;
27921;SDS011;15261;50.356;10.340;2023-05-10T05:35:16;0.60;;;0.60;;
27921;SDS011;15261;50.356;10.340;2023-05-10T05:37:41;0.57;;;0.50;;
27921;SDS011;15261;50.356;10.340;2023-05-10T05:40:07;0.47;;;0.43;;
27921;SDS011;15261;50.356;10.340;2023-05-10T05:42:33;2.22;;;0.32;;
27921;SDS011;15261;50.356;10.340;2023-05-10T05:44:59;0.30;;;0.30;;
27921;SDS011;15261;50.356;10.340;2023-05-10T05:47:25;1.15;;;0.30;;
27921;SDS011;15261;50.356;10.340;2023-05-10T05:49:50;0.28;;;0.28;;
27921;SDS011;15261;50.356;10.340;2023-05-10T05:52:16;0.22;;;0.20;;
27921;SDS011;15261;50.356;10.340;2023-05-10T05:54:43;0.25;;;0.25;;
27921;SDS011;15261;50.356;10.340;2023-05-10T05:57:09;0.35;;;0.35;;
27921;SDS011;15261;50.356;10.340;2023-05-10T05:59:38;0.22;;;0.22;;
27921;SDS011;15261;50.356;10.340;2023-05-10T06:02:08;2.30;;;0.40;;
27921;SDS011;15261;50.356;10.340;2023-05-10T06:04:35;0.57;;;0.30;;
27921;SDS011;15261;50.356;10.340;2023-05-10T06:07:00;0.35;;;0.25;;
27921;SDS011;15261;50.356;10.340;2023-05-10T06:09:26;0.30;;;0.30;;
27921;SDS011;15261;50.356;10.340;2023-05-10T06:11:52;0.15;;;0.15;;
27921;SDS011;15261;50.356;10.340;2023-05-10T06:14:19;0.40;;;0.40;;
27921;SDS011;15261;50.356;10.340;2023-05-10T06:16:45;0.55;;;0.40;;
27921;SDS011;15261;50.356;10.340;2023-05-10T06:19:11;0.45;;;0.45;;
27921;SDS011;15261;50.356;10.340;2023-05-10T06:21:37;0.80;;;0.40;;
27921;SDS011;15261;50.356;10.340;2023-05-10T06:24:03;0.30;;;0.30;;
27921;SDS011;15261;50.356;10.340;2023-05-10T06:26:29;3.67;;;0.70;;
27921;SDS011;15261;50.356;10.340;2023-05-10T06:28:55;0.20;;;0.20;;
27921;SDS011;15261;50.356;10.340;2023-05-10T06:31:20;0.30;;;0.30;;
27921;SDS011;15261;50.356;10.340;2023-05-10T06:33:46;2.38;;;0.45;;
27921;SDS011;15261;50.356;10.340;2023-05-10T06:36:12;1.13;;;0.40;;
27921;SDS011;15261;50.356;10.340;2023-05-10T06:38:38;0.63;;;0.60;;
27921;SDS011;15261;50.356;10.340;2023-05-10T06:41:04;1.02;;;0.45;;
27921;SDS011;15261;50.356;10.340;2023-05-10T06:43:30;0.88;;;0.40;;
27921;SDS011;15261;50.356;10.340;2023-05-10T06:45:56;0.40;;;0.40;;
27921;SDS011;15261;50.356;10.340;2023-05-10T06:48:22;0.38;;;0.38;;
27921;SDS011;15261;50.356;10.340;2023-05-10T06:50:48;0.50;;;0.50;;
27921;SDS011;15261;50.356;10.340;2023-05-10T06:53:14;0.85;;;0.47;;
27921;SDS011;15261;50.356;10.340;2023-05-10T06:55:40;0.60;;;0.60;;
27921;SDS011;15261;50.356;10.340;2023-05-10T06:58:05;0.60;;;0.60;;
27921;SDS011;15261;50.356;10.340;2023-05-10T07:00:31;0.50;;;0.50;;
27921;SDS011;15261;50.356;10.340;2023-05-10T07:02:59;0.98;;;0.40;;
27921;SDS011;15261;50.356;10.340;2023-05-10T07:05:24;0.68;;;0.68;;
27921;SDS011;15261;50.356;10.340;2023-05-10T07:07:52;0.70;;;0.70;;
27921;SDS011;15261;50.356;10.340;2023-05-10T07:10:18;0.93;;;0.82;;
27921;SDS011;15261;50.356;10.340;2023-05-10T07:12:43;0.90;;;0.90;;
27921;SDS011;15261;50.356;10.340;2023-05-10T07:15:09;0.90;;;0.90;;
27921;SDS011;15261;50.356;10.340;2023-05-10T07:17:35;2.08;;;0.80;;
27921;SDS011;15261;50.356;10.340;2023-05-10T07:20:01;0.98;;;0.63;;
27921;SDS011;15261;50.356;10.340;2023-05-10T07:22:28;1.40;;;0.85;;
27921;SDS011;15261;50.356;10.340;2023-05-10T07:24:54;0.80;;;0.80;;
27921;SDS011;15261;50.356;10.340;2023-05-10T07:27:19;0.63;;;0.63;;
27921;SDS011;15261;50.356;10.340;2023-05-10T07:29:45;0.70;;;0.63;;
27921;SDS011;15261;50.356;10.340;2023-05-10T07:32:14;0.73;;;0.73;;
27921;SDS011;15261;50.356;10.340;2023-05-10T07:34:40;2.35;;;0.70;;
27921;SDS011;15261;50.356;10.340;2023-05-10T07:37:05;2.08;;;0.80;;
27921;SDS011;15261;50.356;10.340;2023-05-10T07:39:31;1.88;;;0.85;;
27921;SDS011;15261;50.356;10.340;2023-05-10T07:41:57;0.85;;;0.77;;
27921;SDS011;15261;50.356;10.340;2023-05-10T07:44:22;5.18;;;0.98;;
27921;SDS011;15261;50.356;10.340;2023-05-10T07:46:48;3.20;;;0.90;;
27921;SDS011;15261;50.356;10.340;2023-05-10T07:49:14;0.65;;;0.65;;
27921;SDS011;15261;50.356;10.340;2023-05-10T07:51:40;1.13;;;0.90;;
27921;SDS011;15261;50.356;10.340;2023-05-10T07:54:06;1.48;;;0.90;;
27921;SDS011;15261;50.356;10.340;2023-05-10T07:56:32;0.82;;;0.82;;
27921;SDS011;15261;50.356;10.340;2023-05-10T07:58:59;0.52;;;0.52;;
27921;SDS011;15261;50.356;10.340;2023-05-10T08:01:26;1.63;;;0.80;;
27921;SDS011;15261;50.356;10.340;2023-05-10T08:03:54;1.63;;;0.80;;
27921;SDS011;15261;50.356;10.340;2023-05-10T08:06:20;1.55;;;0.80;;
27921;SDS011;15261;50.356;10.340;2023-05-10T08:08:46;2.53;;;0.70;;
27921;SDS011;15261;50.356;10.340;2023-05-10T08:11:18;1.67;;;0.93;;
27921;SDS011;15261;50.356;10.340;2023-05-10T08:13:45;0.70;;;0.70;;
27921;SDS011;15261;50.356;10.340;2023-05-10T08:16:11;1.05;;;1.05;;
27921;SDS011;15261;50.356;10.340;2023-05-10T08:18:37;1.88;;;1.00;;
27921;SDS011;15261;50.356;10.340;2023-05-10T08:21:03;1.08;;;1.00;;
27921;SDS011;15261;50.356;10.340;2023-05-10T08:23:29;1.10;;;0.93;;
27921;SDS011;15261;50.356;10.340;2023-05-10T08:25:55;0.90;;;0.90;;
27921;SDS011;15261;50.356;10.340;2023-05-10T08:28:21;2.83;;;1.10;;
27921;SDS011;15261;50.356;10.340;2023-05-10T08:30:46;1.52;;;0.90;;
27921;SDS011;15261;50.356;10.340;2023-05-10T08:33:12;2.08;;;1.30;;
27921;SDS011;15261;50.356;10.340;2023-05-10T08:35:38;2.90;;;1.15;;
27921;SDS011;15261;50.356;10.340;2023-05-10T08:38:04;2.75;;;1.13;;
27921;SDS011;15261;50.356;10.340;2023-05-10T08:40:30;4.70;;;1.40;;
27921;SDS011;15261;50.356;10.340;2023-05-10T08:45:32;2.47;;;1.35;;
27921;SDS011;15261;50.356;10.340;2023-05-10T08:48:04;1.95;;;1.27;;
27921;SDS011;15261;50.356;10.340;2023-05-10T08:50:31;2.15;;;1.30;;
27921;SDS011;15261;50.356;10.340;2023-05-10T08:53:00;1.75;;;1.40;;
27921;SDS011;15261;50.356;10.340;2023-05-10T08:55:31;4.80;;;1.45;;
27921;SDS011;15261;50.356;10.340;2023-05-10T08:57:58;1.52;;;1.02;;
27921;SDS011;15261;50.356;10.340;2023-05-10T09:00:24;3.50;;;1.80;;
27921;SDS011;15261;50.356;10.340;2023-05-10T09:02:51;12.48;;;11.35;;
27921;SDS011;15261;50.356;10.340;2023-05-10T09:05:17;2.95;;;2.67;;
27921;SDS011;15261;50.356;10.340;2023-05-10T09:07:43;3.67;;;1.35;;
27921;SDS011;15261;50.356;10.340;2023-05-10T09:10:08;2.88;;;1.70;;
27921;SDS011;15261;50.356;10.340;2023-05-10T09:12:35;4.53;;;1.98;;
27921;SDS011;15261;50.356;10.340;2023-05-10T09:15:02;4.00;;;1.70;;
27921;SDS011;15261;50.356;10.340;2023-05-10T09:17:30;1.45;;;1.35;;
27921;SDS011;15261;50.356;10.340;2023-05-10T09:19:59;1.23;;;1.00;;
27921;SDS011;15261;50.356;10.340;2023-05-10T09:22:27;1.95;;;0.90;;
27921;SDS011;15261;50.356;10.340;2023-05-10T09:25:09;0.95;;;0.90;;
27921;SDS011;15261;50.356;10.340;2023-05-10T09:27:36;0.60;;;0.60;;
27921;SDS011;15261;50.356;10.340;2023-05-10T09:30:03;1.98;;;0.93;;
27921;SDS011;15261;50.356;10.340;2023-05-10T09:32:42;1.00;;;0.88;;
27921;SDS011;15261;50.356;10.340;2023-05-10T09:35:10;1.60;;;0.98;;
27921;SDS011;15261;50.356;10.340;2023-05-10T09:37:40;1.70;;;1.17;;
27921;SDS011;15261;50.356;10.340;2023-05-10T09:40:11;2.25;;;0.90;;
27921;SDS011;15261;50.356;10.340;2023-05-10T09:42:38;2.58;;;1.20;;
27921;SDS011;15261;50.356;10.340;2023-05-10T09:45:04;0.98;;;0.75;;
27921;SDS011;15261;50.356;10.340;2023-05-10T09:47:36;0.82;;;0.80;;
27921;SDS011;15261;50.356;10.340;2023-05-10T09:50:02;1.38;;;1.30;;
27921;SDS011;15261;50.356;10.340;2023-05-10T09:52:30;0.90;;;0.85;;
27921;SDS011;15261;50.356;10.340;2023-05-10T09:55:10;2.88;;;0.98;;
27921;SDS011;15261;50.356;10.340;2023-05-10T09:57:35;7.85;;;1.25;;
27921;SDS011;15261;50.356;10.340;2023-05-10T10:00:01;5.60;;;1.17;;
27921;SDS011;15261;50.356;10.340;2023-05-10T10:02:29;1.75;;;1.15;;
27921;SDS011;15261;50.356;10.340;2023-05-10T10:04:55;1.98;;;1.00;;
27921;SDS011;15261;50.356;10.340;2023-05-10T10:07:22;1.42;;;0.80;;
27921;SDS011;15261;50.356;10.340;2023-05-10T10:09:49;3.33;;;1.40;;
27921;SDS011;15261;50.356;10.340;2023-05-10T10:12:15;1.55;;;1.27;;
27921;SDS011;15261;50.356;10.340;2023-05-10T10:14:42;1.50;;;1.30;;
27921;SDS011;15261;50.356;10.340;2023-05-10T10:17:08;4.47;;;1.55;;
27921;SDS011;15261;50.356;10.340;2023-05-10T10:19:34;1.45;;;1.45;;
27921;SDS011;15261;50.356;10.340;2023-05-10T10:22:00;1.92;;;1.55;;
27921;SDS011;15261;50.356;10.340;2023-05-10T10:24:26;3.80;;;1.77;;
27921;SDS011;15261;50.356;10.340;2023-05-10T10:26:52;2.17;;;1.92;;
27921;SDS011;15261;50.356;10.340;2023-05-10T10:32:12;2.20;;;2.00;;
27921;SDS011;15261;50.356;10.340;2023-05-10T10:34:49;2.30;;;2.13;;
27921;SDS011;15261;50.356;10.340;2023-05-10T10:37:15;2.10;;;2.00;;
27921;SDS011;15261;50.356;10.340;2023-05-10T10:39:41;2.40;;;2.10;;
27921;SDS011;15261;50.356;10.340;2023-05-10T10:42:06;2.03;;;1.90;;
27921;SDS011;15261;50.356;10.340;2023-05-10T10:47:02;2.33;;;2.08;;
27921;SDS011;15261;50.356;10.340;2023-05-10T10:49:50;2.28;;;2.08;;
27921;SDS011;15261;50.356;10.340;2023-05-10T10:55:13;1.60;;;1.60;;
27921;SDS011;15261;50.356;10.340;2023-05-10T11:02:56;2.40;;;2.20;;
27921;SDS011;15261;50.356;10.340;2023-05-10T11:13:39;1.23;;;1.23;;
27921;SDS011;15261;50.356;10.340;2023-05-10T11:19:02;1.10;;;1.10;;
27921;SDS011;15261;50.356;10.340;2023-05-10T11:21:33;3.13;;;2.92;;
27921;SDS011;15261;50.356;10.340;2023-05-10T11:24:12;3.78;;;3.50;;
27921;SDS011;15261;50.356;10.340;2023-05-10T11:26:39;5.65;;;5.25;;
27921;SDS011;15261;50.356;10.340;2023-05-10T11:29:05;3.70;;;3.50;;
27921;SDS011;15261;50.356;10.340;2023-05-10T11:31:31;2.10;;;1.92;;
27921;SDS011;15261;50.356;10.340;2023-05-10T11:33:57;3.10;;;2.90;;
27921;SDS011;15261;50.356;10.340;2023-05-10T11:36:26;3.83;;;3.53;;
27921;SDS011;15261;50.356;10.340;2023-05-10T11:38:54;3.20;;;2.70;;
27921;SDS011;15261;50.356;10.340;2023-05-10T11:41:21;4.38;;;2.35;;
27921;SDS011;15261;50.356;10.340;2023-05-10T11:43:51;1.90;;;1.80;;
27921;SDS011;15261;50.356;10.340;2023-05-10T11:46:19;1.95;;;1.80;;
27921;SDS011;15261;50.356;10.340;2023-05-10T11:48:46;2.13;;;2.03;;
27921;SDS011;15261;50.356;10.340;2023-05-10T11:51:14;1.80;;;1.70;;
27921;SDS011;15261;50.356;10.340;2023-05-10T11:53:40;1.50;;;1.50;;
27921;SDS011;15261;50.356;10.340;2023-05-10T11:56:07;1.80;;;1.70;;
27921;SDS011;15261;50.356;10.340;2023-05-10T11:58:35;2.10;;;2.00;;
27921;SDS011;15261;50.356;10.340;2023-05-10T12:01:02;3.58;;;2.10;;
27921;SDS011;15261;50.356;10.340;2023-05-10T12:03:29;1.85;;;1.75;;
27921;SDS011;15261;50.356;10.340;2023-05-10T12:05:55;3.17;;;2.05;;
27921;SDS011;15261;50.356;10.340;2023-05-10T12:08:22;1.65;;;1.55;;
27921;SDS011;15261;50.356;10.340;2023-05-10T12:10:49;2.95;;;1.52;;
27921;SDS011;15261;50.356;10.340;2023-05-10T12:13:16;2.75;;;1.58;;
27921;SDS011;15261;50.356;10.340;2023-05-10T12:15:42;1.50;;;1.50;;
27921;SDS011;15261;50.356;10.340;2023-05-10T12:18:12;3.13;;;1.70;;
27921;SDS011;15261;50.356;10.340;2023-05-10T12:20:38;1.67;;;1.55;;
27921;SDS011;15261;50.356;10.340;2023-05-10T12:23:05;3.72;;;1.50;;
27921;SDS011;15261;50.356;10.340;2023-05-10T12:25:33;5.63;;;1.45;;
27921;SDS011;15261;50.356;10.340;2023-05-10T12:28:02;1.40;;;1.02;;
27921;SDS011;15261;50.356;10.340;2023-05-10T12:30:30;1.00;;;1.00;;
27921;SDS011;15261;50.356;10.340;2023-05-10T12:33:00;1.20;;;1.10;;
27921;SDS011;15261;50.356;10.340;2023-05-10T12:35:30;4.85;;;1.10;;
27921;SDS011;15261;50.356;10.340;2023-05-10T12:37:56;2.05;;;1.00;;
27921;SDS011;15261;50.356;10.340;2023-05-10T12:40:21;5.43;;;1.13;;
27921;SDS011;15261;50.356;10.340;2023-05-10T12:42:47;1.20;;;1.15;;
27921;SDS011;15261;50.356;10.340;2023-05-10T12:45:13;2.42;;;1.20;;
27921;SDS011;15261;50.356;10.340;2023-05-10T12:47:39;1.02;;;1.02;;
27921;SDS011;15261;50.356;10.340;2023-05-10T12:50:05;1.38;;;1.30;;
27921;SDS011;15261;50.356;10.340;2023-05-10T12:52:31;0.98;;;0.98;;
27921;SDS011;15261;50.356;10.340;2023-05-10T12:57:26;1.27;;;1.17;;
27921;SDS011;15261;50.356;10.340;2023-05-10T12:59:52;2.08;;;1.10;;
27921;SDS011;15261;50.356;10.340;2023-05-10T13:02:18;2.53;;;1.15;;
27921;SDS011;15261;50.356;10.340;2023-05-10T13:04:45;1.33;;;1.10;;
27921;SDS011;15261;50.356;10.340;2023-05-10T13:07:12;1.70;;;1.40;;
27921;SDS011;15261;50.356;10.340;2023-05-10T13:09:37;1.30;;;1.20;;
27921;SDS011;15261;50.356;10.340;2023-05-10T13:12:03;1.60;;;1.50;;
27921;SDS011;15261;50.356;10.340;2023-05-10T13:14:29;1.17;;;1.10;;
27921;SDS011;15261;50.356;10.340;2023-05-10T13:16:55;1.38;;;1.27;;
27921;SDS011;15261;50.356;10.340;2023-05-10T13:19:20;2.28;;;1.20;;
27921;SDS011;15261;50.356;10.340;2023-05-10T13:21:46;1.73;;;1.25;;
27921;SDS011;15261;50.356;10.340;2023-05-10T13:24:12;4.00;;;1.15;;
27921;SDS011;15261;50.356;10.340;2023-05-10T13:26:41;1.92;;;1.10;;
27921;SDS011;15261;50.356;10.340;2023-05-10T13:29:07;1.52;;;1.40;;
27921;SDS011;15261;50.356;10.340;2023-05-10T13:31:33;10.27;;;1.48;;
27921;SDS011;15261;50.356;10.340;2023-05-10T13:34:00;1.17;;;1.10;;
27921;SDS011;15261;50.356;10.340;2023-05-10T13:36:25;2.65;;;1.25;;
27921;SDS011;15261;50.356;10.340;2023-05-10T13:38:51;1.40;;;1.30;;
27921;SDS011;15261;50.356;10.340;2023-05-10T13:41:17;2.25;;;1.38;;
27921;SDS011;15261;50.356;10.340;2023-05-10T13:43:42;5.38;;;1.83;;
27921;SDS011;15261;50.356;10.340;2023-05-10T13:46:09;3.47;;;1.27;;
27921;SDS011;15261;50.356;10.340;2023-05-10T13:48:34;3.55;;;1.40;;
27921;SDS011;15261;50.356;10.340;2023-05-10T13:51:02;2.67;;;1.20;;
27921;SDS011;15261;50.356;10.340;2023-05-10T13:53:27;2.13;;;1.40;;
27921;SDS011;15261;50.356;10.340;2023-05-10T13:55:53;4.07;;;1.20;;
27921;SDS011;15261;50.356;10.340;2023-05-10T13:58:18;3.25;;;1.10;;
27921;SDS011;15261;50.356;10.340;2023-05-10T14:00:44;1.92;;;1.00;;
27921;SDS011;15261;50.356;10.340;2023-05-10T14:03:10;2.35;;;0.80;;
27921;SDS011;15261;50.356;10.340;2023-05-10T14:05:35;5.07;;;0.80;;
27921;SDS011;15261;50.356;10.340;2023-05-10T14:08:01;2.60;;;1.00;;
27921;SDS011;15261;50.356;10.340;2023-05-10T14:10:27;1.33;;;0.73;;
27921;SDS011;15261;50.356;10.340;2023-05-10T14:12:53;2.80;;;0.52;;
27921;SDS011;15261;50.356;10.340;2023-05-10T14:15:18;4.28;;;0.85;;
27921;SDS011;15261;50.356;10.340;2023-05-10T14:17:44;1.30;;;0.60;;
27921;SDS011;15261;50.356;10.340;2023-05-10T14:20:10;1.33;;;0.70;;
27921;SDS011;15261;50.356;10.340;2023-05-10T14:22:36;3.90;;;0.65;;
27921;SDS011;15261;50.356;10.340;2023-05-10T14:25:01;0.65;;;0.65;;
27921;SDS011;15261;50.356;10.340;2023-05-10T14:27:27;1.08;;;0.85;;
27921;SDS011;15261;50.356;10.340;2023-05-10T14:29:53;2.08;;;0.93;;
27921;SDS011;15261;50.356;10.340;2023-05-10T14:32:19;2.28;;;0.90;;
27921;SDS011;15261;50.356;10.340;2023-05-10T14:34:44;2.72;;;0.98;;
27921;SDS011;15261;50.356;10.340;2023-05-10T14:37:10;4.65;;;1.30;;
27921;SDS011;15261;50.356;10.340;2023-05-10T14:39:36;1.90;;;1.20;;
27921;SDS011;15261;50.356;10.340;2023-05-10T14:42:02;2.95;;;1.00;;
27921;SDS011;15261;50.356;10.340;2023-05-10T14:44:28;4.00;;;1.20;;
27921;SDS011;15261;50.356;10.340;2023-05-10T14:46:54;3.67;;;0.90;;
27921;SDS011;15261;50.356;10.340;2023-05-10T14:49:20;1.23;;;1.00;;
27921;SDS011;15261;50.356;10.340;2023-05-10T14:51:47;2.60;;;1.08;;
27921;SDS011;15261;50.356;10.340;2023-05-10T14:54:13;1.83;;;1.00;;
27921;SDS011;15261;50.356;10.340;2023-05-10T14:56:39;2.58;;;0.90;;
27921;SDS011;15261;50.356;10.340;2023-05-10T14:59:06;1.10;;;1.00;;
27921;SDS011;15261;50.356;10.340;2023-05-10T15:01:32;1.58;;;1.08;;
27921;SDS011;15261;50.356;10.340;2023-05-10T15:03:59;1.67;;;1.00;;
27921;SDS011;15261;50.356;10.340;2023-05-10T15:06:34;3.92;;;1.15;;
27921;SDS011;15261;50.356;10.340;2023-05-10T15:09:00;3.03;;;1.20;;
27921;SDS011;15261;50.356;10.340;2023-05-10T15:11:28;2.55;;;1.27;;
27921;SDS011;15261;50.356;10.340;2023-05-10T15:13:54;2.40;;;1.10;;
27921;SDS011;15261;50.356;10.340;2023-05-10T15:16:20;1.42;;;1.27;;
27921;SDS011;15261;50.356;10.340;2023-05-10T15:18:45;3.33;;;1.10;;
27921;SDS011;15261;50.356;10.340;2023-05-10T15:21:11;1.05;;;1.05;;
27921;SDS011;15261;50.356;10.340;2023-05-10T15:23:37;0.80;;;0.80;;
27921;SDS011;15261;50.356;10.340;2023-05-10T15:26:03;3.83;;;1.25;;
27921;SDS011;15261;50.356;10.340;2023-05-10T15:28:29;3.78;;;1.30;;
27921;SDS011;15261;50.356;10.340;2023-05-10T15:30:54;2.83;;;1.10;;
27921;SDS011;15261;50.356;10.340;2023-05-10T15:33:21;1.85;;;1.60;;
27921;SDS011;15261;50.356;10.340;2023-05-10T15:35:46;1.42;;;1.33;;